createdAt,value
2018-09-11T00:00:32.602Z,101980.00
2018-09-11T00:03:02.800Z,101971.00
2018-09-11T00:05:33.869Z,101957.00
2018-09-11T00:08:03.278Z,101953.00
2018-09-11T00:10:32.717Z,101954.00
2018-09-11T00:13:02.763Z,101955.00
2018-09-11T00:15:32.654Z,101949.00
2018-09-11T00:18:02.614Z,101947.00
2018-09-11T00:20:32.738Z,101948.00
2018-09-11T00:23:02.684Z,101948.00
2018-09-11T00:25:32.745Z,101950.00
2018-09-11T00:28:02.808Z,101956.00
2018-09-11T00:30:32.662Z,101955.00
2018-09-11T00:35:48.134Z,101960.00
2018-09-11T00:38:15.824Z,101951.00
2018-09-11T00:40:43.635Z,101951.00
2018-09-11T00:43:11.302Z,101952.00
2018-09-11T00:45:38.989Z,101949.00
2018-09-11T00:48:06.900Z,101949.00
2018-09-11T00:50:34.585Z,101949.00
2018-09-11T00:53:02.301Z,101947.00
2018-09-11T00:55:33.701Z,101941.00
2018-09-11T00:58:01.586Z,101938.00
2018-09-11T01:00:30.976Z,101937.00
2018-09-11T01:03:00.336Z,101940.00
2018-09-11T01:05:29.738Z,101932.00
2018-09-11T01:07:59.102Z,101930.00
2018-09-11T01:10:28.429Z,101924.00
2018-09-11T01:12:57.761Z,101930.00
2018-09-11T01:15:27.117Z,101918.00
2018-09-11T01:17:56.523Z,101919.00
2018-09-11T01:20:25.994Z,101925.00
2018-09-11T01:22:55.330Z,101922.00
2018-09-11T01:25:24.694Z,101924.00
2018-09-11T01:27:54.231Z,101931.00
2018-09-11T01:30:24.028Z,101933.00
2018-09-11T01:32:53.793Z,101938.00
2018-09-11T01:35:23.827Z,101941.00
2018-09-11T01:37:53.170Z,101936.00
2018-09-11T01:40:22.540Z,101940.00
2018-09-11T01:42:51.870Z,101938.00
2018-09-11T01:45:21.250Z,101938.00
2018-09-11T01:47:50.613Z,101939.00
2018-09-11T01:50:19.961Z,101940.00
2018-09-11T01:52:49.338Z,101934.00
2018-09-11T01:55:18.696Z,101936.00
2018-09-11T01:57:48.045Z,101948.00
2018-09-11T02:00:20.832Z,101944.00
2018-09-11T02:02:50.137Z,101945.00
2018-09-11T02:05:19.458Z,101943.00
2018-09-11T02:07:49.037Z,101948.00
2018-09-11T02:10:18.390Z,101942.00
2018-09-11T02:12:47.710Z,101946.00
2018-09-11T02:15:17.110Z,101934.00
2018-09-11T02:17:46.517Z,101942.00
2018-09-11T02:20:15.925Z,101930.00
2018-09-11T02:22:45.258Z,101940.00
2018-09-11T02:25:14.865Z,101938.00
2018-09-11T02:27:44.180Z,101932.00
2018-09-11T02:30:13.536Z,101940.00
2018-09-11T02:32:42.880Z,101934.00
2018-09-11T02:35:12.246Z,101931.00
2018-09-11T02:37:41.583Z,101936.00
2018-09-11T02:40:11.306Z,101938.00
2018-09-11T02:42:40.664Z,101937.00
2018-09-11T02:45:10.068Z,101942.00
2018-09-11T02:47:39.424Z,101940.00
2018-09-11T02:50:09.192Z,101939.00
2018-09-11T02:52:38.774Z,101923.00
2018-09-11T02:55:08.703Z,101917.00
2018-09-11T02:57:38.064Z,101918.00
2018-09-11T03:00:07.472Z,101912.00
2018-09-11T03:02:36.818Z,101907.00
2018-09-11T03:05:06.279Z,101906.00
2018-09-11T03:07:35.618Z,101903.00
2018-09-11T03:10:05.123Z,101894.00
2018-09-11T03:12:34.479Z,101885.00
2018-09-11T03:15:03.856Z,101883.00
2018-09-11T03:17:33.521Z,101870.00
2018-09-11T03:20:03.144Z,101868.00
2018-09-11T03:22:33.125Z,101857.00
2018-09-11T03:25:03.094Z,101866.00
2018-09-11T03:27:33.154Z,101863.00
2018-09-11T03:30:03.173Z,101864.00
2018-09-11T03:32:33.147Z,101862.00
2018-09-11T03:35:03.339Z,101863.00
2018-09-11T03:37:33.149Z,101863.00
2018-09-11T03:40:03.121Z,101862.00
2018-09-11T03:42:33.197Z,101853.00
2018-09-11T03:45:03.141Z,101843.00
2018-09-11T03:47:33.119Z,101849.00
2018-09-11T03:50:03.287Z,101857.00
2018-09-11T03:52:33.151Z,101855.00
2018-09-11T03:55:03.218Z,101850.00
2018-09-11T03:57:33.178Z,101851.00
2018-09-11T04:00:03.190Z,101851.00
2018-09-11T04:02:33.211Z,101852.00
2018-09-11T04:05:03.235Z,101849.00
2018-09-11T04:07:33.209Z,101853.00
2018-09-11T04:10:03.508Z,101839.00
2018-09-11T04:12:33.256Z,101837.00
2018-09-11T04:15:03.187Z,101833.00
2018-09-11T04:17:39.507Z,101822.00
2018-09-11T04:20:08.863Z,101821.00
2018-09-11T04:22:39.499Z,101824.00
2018-09-11T04:25:09.156Z,101826.00
2018-09-11T04:27:38.561Z,101823.00
2018-09-11T04:30:07.970Z,101822.00
2018-09-11T04:32:37.293Z,101823.00
2018-09-11T04:35:06.923Z,101818.00
2018-09-11T04:37:36.390Z,101815.00
2018-09-11T04:40:05.982Z,101819.00
2018-09-11T04:42:35.327Z,101822.00
2018-09-11T04:45:05.004Z,101825.00
2018-09-11T04:47:34.352Z,101833.00
2018-09-11T04:50:03.720Z,101826.00
2018-09-11T04:52:33.283Z,101834.00
2018-09-11T04:55:03.295Z,101833.00
2018-09-11T04:57:33.306Z,101828.00
2018-09-11T05:00:03.437Z,101831.00
2018-09-11T05:02:33.367Z,101823.00
2018-09-11T05:05:03.530Z,101812.00
2018-09-11T05:07:33.371Z,101806.00
2018-09-11T05:10:03.424Z,101800.00
2018-09-11T05:12:33.349Z,101792.00
2018-09-11T05:15:03.300Z,101775.00
2018-09-11T05:17:33.664Z,101770.00
2018-09-11T05:20:03.465Z,101773.00
2018-09-11T05:22:33.414Z,101769.00
2018-09-11T05:25:03.396Z,101772.00
2018-09-11T05:27:33.534Z,101763.00
2018-09-11T05:30:03.608Z,101774.00
2018-09-11T05:32:33.353Z,101778.00
2018-09-11T05:35:03.481Z,101778.00
2018-09-11T05:37:33.483Z,101782.00
2018-09-11T05:40:03.578Z,101784.00
2018-09-11T05:42:33.583Z,101780.00
2018-09-11T05:45:03.670Z,101791.00
2018-09-11T05:47:33.454Z,101790.00
2018-09-11T05:50:03.738Z,101784.00
2018-09-11T05:52:33.547Z,101783.00
2018-09-11T05:55:03.558Z,101792.00
2018-09-11T05:57:33.421Z,101799.00
2018-09-11T06:00:03.493Z,101794.00
2018-09-11T06:02:33.578Z,101796.00
2018-09-11T06:05:03.498Z,101798.00
2018-09-11T06:07:33.421Z,101799.00
2018-09-11T06:10:04.049Z,101782.00
2018-09-11T06:12:33.414Z,101791.00
2018-09-11T06:15:03.548Z,101789.00
2018-09-11T06:17:33.555Z,101784.00
2018-09-11T06:20:03.491Z,101775.00
2018-09-11T06:22:33.517Z,101767.00
2018-09-11T06:25:03.622Z,101770.00
2018-09-11T06:27:33.774Z,101759.00
2018-09-11T06:30:03.861Z,101766.00
2018-09-11T06:32:33.492Z,101762.00
2018-09-11T06:35:03.618Z,101768.00
2018-09-11T06:37:33.623Z,101774.00
2018-09-11T06:40:03.695Z,101771.00
2018-09-11T06:42:33.718Z,101773.00
2018-09-11T06:45:03.842Z,101770.00
2018-09-11T06:47:33.516Z,101742.00
2018-09-11T06:50:03.543Z,101754.00
2018-09-11T06:52:33.600Z,101743.00
2018-09-11T06:55:03.695Z,101745.00
2018-09-11T06:57:33.671Z,101739.00
2018-09-11T07:00:03.531Z,101736.00
2018-09-11T07:02:33.747Z,101744.00
2018-09-11T07:05:03.567Z,101755.00
2018-09-11T07:07:33.655Z,101757.00
2018-09-11T07:10:03.689Z,101764.00
2018-09-11T07:12:33.638Z,101767.00
2018-09-11T07:15:03.739Z,101774.00
2018-09-11T07:17:33.765Z,101774.00
2018-09-11T07:20:03.909Z,101776.00
2018-09-11T07:22:33.646Z,101772.00
2018-09-11T07:25:03.934Z,101770.00
2018-09-11T07:27:33.631Z,101770.00
2018-09-11T07:30:03.708Z,101758.00
2018-09-11T07:32:33.933Z,101752.00
2018-09-11T07:35:03.709Z,101750.00
2018-09-11T07:37:33.635Z,101745.00
2018-09-11T07:40:03.831Z,101733.00
2018-09-11T07:42:33.793Z,101724.00
2018-09-11T07:45:03.878Z,101737.00
2018-09-11T07:47:33.758Z,101738.00
2018-09-11T07:50:03.840Z,101733.00
2018-09-11T07:52:33.802Z,101733.00
2018-09-11T07:55:03.949Z,101733.00
2018-09-11T07:57:38.018Z,101736.00
2018-09-11T08:00:07.895Z,101717.00
2018-09-11T08:02:37.243Z,101705.00
2018-09-11T08:05:06.618Z,101696.00
2018-09-11T08:07:35.996Z,101693.00
2018-09-11T08:10:05.337Z,101702.00
2018-09-11T08:12:34.720Z,101706.00
2018-09-11T08:15:04.100Z,101712.00
2018-09-11T08:17:33.787Z,101702.00
2018-09-11T08:20:03.870Z,101716.00
2018-09-11T08:22:33.825Z,101727.00
2018-09-11T08:25:03.808Z,101718.00
2018-09-11T08:27:37.578Z,101700.00
2018-09-11T08:30:07.391Z,101723.00
2018-09-11T08:32:36.737Z,101722.00
2018-09-11T08:35:06.171Z,101717.00
2018-09-11T08:37:35.531Z,101704.00
2018-09-11T08:40:05.003Z,101699.00
2018-09-11T08:42:34.360Z,101703.00
2018-09-11T08:45:03.932Z,101704.00
2018-09-11T08:47:33.994Z,101713.00
2018-09-11T08:50:04.034Z,101715.00
2018-09-11T08:52:34.109Z,101710.00
2018-09-11T08:55:03.997Z,101720.00
2018-09-11T08:57:33.913Z,101726.00
2018-09-11T09:00:04.328Z,101725.00
2018-09-11T09:02:34.041Z,101729.00
2018-09-11T09:05:04.047Z,101720.00
2018-09-11T09:07:33.902Z,101708.00
2018-09-11T09:10:04.114Z,101716.00
2018-09-11T09:12:33.984Z,101716.00
2018-09-11T09:15:04.082Z,101719.00
2018-09-11T09:17:34.000Z,101721.00
2018-09-11T09:20:04.064Z,101714.00
2018-09-11T09:22:35.231Z,101708.00
2018-09-11T09:25:04.906Z,101704.00
2018-09-11T09:27:34.198Z,101724.00
2018-09-11T09:30:04.043Z,101728.00
2018-09-11T09:32:33.981Z,101731.00
2018-09-11T09:35:04.315Z,101734.00
2018-09-11T09:37:34.136Z,101738.00
2018-09-11T09:40:04.144Z,101738.00
2018-09-11T09:42:34.184Z,101744.00
2018-09-11T09:45:04.166Z,101744.00
2018-09-11T09:47:34.176Z,101748.00
2018-09-11T09:50:04.178Z,101739.00
2018-09-11T09:52:34.063Z,101730.00
2018-09-11T09:55:04.165Z,101738.00
2018-09-11T09:57:34.062Z,101728.00
2018-09-11T10:00:04.189Z,101733.00
2018-09-11T10:02:34.207Z,101725.00
2018-09-11T10:05:04.215Z,101730.00
2018-09-11T10:07:34.207Z,101741.00
2018-09-11T10:10:05.786Z,101749.00
2018-09-11T10:12:35.242Z,101740.00
2018-09-11T10:15:04.563Z,101753.00
2018-09-11T10:17:34.250Z,101748.00
2018-09-11T10:20:04.212Z,101740.00
2018-09-11T10:22:34.269Z,101738.00
2018-09-11T10:25:04.276Z,101733.00
2018-09-11T10:27:34.233Z,101728.00
2018-09-11T10:30:04.257Z,101739.00
2018-09-11T10:32:34.232Z,101737.00
2018-09-11T10:35:04.319Z,101731.00
2018-09-11T10:37:34.250Z,101725.00
2018-09-11T10:40:04.244Z,101719.00
2018-09-11T10:42:34.196Z,101706.00
2018-09-11T10:45:04.357Z,101707.00
2018-09-11T10:47:34.277Z,101721.00
2018-09-11T10:50:04.472Z,101715.00
2018-09-11T10:52:34.213Z,101709.00
2018-09-11T10:55:04.393Z,101697.00
2018-09-11T10:57:34.438Z,101724.00
2018-09-11T11:00:09.535Z,101729.00
2018-09-11T11:02:38.863Z,101734.00
2018-09-11T11:05:08.157Z,101725.00
2018-09-11T11:07:37.419Z,101719.00
2018-09-11T11:10:08.053Z,101712.00
2018-09-11T11:12:37.433Z,101710.00
2018-09-11T11:15:06.827Z,101696.00
2018-09-11T11:17:36.197Z,101692.00
2018-09-11T11:20:05.553Z,101700.00
2018-09-11T11:22:34.854Z,101698.00
2018-09-11T11:25:04.660Z,101703.00
2018-09-11T11:27:34.304Z,101699.00
2018-09-11T11:30:04.526Z,101711.00
2018-09-11T11:32:34.361Z,101714.00
2018-09-11T11:35:04.471Z,101728.00
2018-09-11T11:37:34.376Z,101727.00
2018-09-11T11:40:04.366Z,101719.00
2018-09-11T11:42:34.695Z,101722.00
2018-09-11T11:45:04.704Z,101734.00
2018-09-11T11:47:34.695Z,101737.00
2018-09-11T11:50:08.981Z,101740.00
2018-09-11T11:52:38.470Z,101734.00
2018-09-11T11:55:07.913Z,101725.00
2018-09-11T11:57:38.127Z,101724.00
2018-09-11T12:00:07.577Z,101729.00
2018-09-11T12:02:36.879Z,101721.00
2018-09-11T12:05:06.285Z,101719.00
2018-09-11T12:07:35.588Z,101725.00
2018-09-11T12:10:04.970Z,101721.00
2018-09-11T12:12:41.544Z,101725.00
2018-09-11T12:15:10.907Z,101723.00
2018-09-11T12:17:40.235Z,101710.00
2018-09-11T12:20:09.598Z,101709.00
2018-09-11T12:22:39.040Z,101686.00
2018-09-11T12:25:08.360Z,101690.00
2018-09-11T12:27:37.708Z,101688.00
2018-09-11T12:30:07.228Z,101688.00
2018-09-11T12:32:36.539Z,101692.00
2018-09-11T12:35:05.903Z,101699.00
2018-09-11T12:37:35.278Z,101694.00
2018-09-11T12:40:04.917Z,101691.00
2018-09-11T12:42:34.788Z,101684.00
2018-09-11T12:45:04.868Z,101691.00
2018-09-11T12:47:35.215Z,101681.00
2018-09-11T12:50:04.906Z,101696.00
2018-09-11T12:52:34.969Z,101704.00
2018-09-11T12:55:04.844Z,101708.00
2018-09-11T12:57:34.818Z,101702.00
2018-09-11T13:00:05.513Z,101701.00
2018-09-11T13:02:34.868Z,101694.00
2018-09-11T13:05:04.935Z,101684.00
2018-09-11T13:07:35.062Z,101700.00
2018-09-11T13:10:05.165Z,101695.00
2018-09-11T13:12:34.943Z,101695.00
2018-09-11T13:15:05.492Z,101695.00
2018-09-11T13:17:35.407Z,101700.00
2018-09-11T13:20:05.019Z,101693.00
2018-09-11T13:22:36.316Z,101695.00
2018-09-11T13:25:05.681Z,101697.00
2018-09-11T13:27:34.941Z,101686.00
2018-09-11T13:30:05.109Z,101685.00
2018-09-11T13:32:35.057Z,101677.00
2018-09-11T13:35:04.933Z,101682.00
2018-09-11T13:37:34.906Z,101686.00
2018-09-11T13:40:05.215Z,101698.00
2018-09-11T13:42:34.944Z,101693.00
2018-09-11T13:45:05.242Z,101702.00
2018-09-11T13:47:35.180Z,101709.00
2018-09-11T13:50:05.493Z,101724.00
2018-09-11T13:52:34.976Z,101718.00
2018-09-11T13:55:05.181Z,101710.00
2018-09-11T13:57:35.065Z,101714.00
2018-09-11T14:00:05.780Z,101706.00
2018-09-11T14:02:35.134Z,101704.00
2018-09-11T14:05:05.172Z,101714.00
2018-09-11T14:07:35.231Z,101715.00
2018-09-11T14:10:05.473Z,101723.00
2018-09-11T14:12:35.098Z,101729.00
2018-09-11T14:15:05.385Z,101732.00
2018-09-11T14:17:35.062Z,101742.00
2018-09-11T14:20:09.080Z,101743.00
2018-09-11T14:22:38.423Z,101738.00
2018-09-11T14:25:07.861Z,101747.00
2018-09-11T14:27:37.218Z,101744.00
2018-09-11T14:30:06.675Z,101753.00
2018-09-11T14:32:36.023Z,101752.00
2018-09-11T14:35:05.405Z,101758.00
2018-09-11T14:37:35.177Z,101757.00
2018-09-11T14:40:05.262Z,101762.00
2018-09-11T14:42:35.222Z,101761.00
2018-09-11T14:45:05.252Z,101762.00
2018-09-11T14:47:40.386Z,101757.00
2018-09-11T14:50:09.829Z,101767.00
2018-09-11T14:52:39.411Z,101765.00
2018-09-11T14:55:09.256Z,101767.00
2018-09-11T14:57:38.596Z,101761.00
2018-09-11T15:00:08.388Z,101769.00
2018-09-11T15:02:37.692Z,101769.00
2018-09-11T15:05:07.083Z,101778.00
2018-09-11T15:07:36.412Z,101772.00
2018-09-11T15:10:05.738Z,101762.00
2018-09-11T15:12:35.944Z,101773.00
2018-09-11T15:15:05.328Z,101782.00
2018-09-11T15:17:35.262Z,101780.00
2018-09-11T15:20:05.491Z,101783.00
2018-09-11T15:22:35.336Z,101789.00
2018-09-11T15:25:05.425Z,101793.00
2018-09-11T15:27:35.423Z,101792.00
2018-09-11T15:30:05.907Z,101785.00
2018-09-11T15:32:35.322Z,101781.00
2018-09-11T15:35:05.251Z,101780.00
2018-09-11T15:37:35.319Z,101779.00
2018-09-11T15:40:05.384Z,101774.00
2018-09-11T15:42:35.401Z,101781.00
2018-09-11T15:45:05.323Z,101772.00
2018-09-11T15:47:35.314Z,101773.00
2018-09-11T15:50:05.410Z,101769.00
2018-09-11T15:52:35.404Z,101770.00
2018-09-11T15:55:05.332Z,101774.00
2018-09-11T15:57:35.404Z,101776.00
2018-09-11T16:00:05.500Z,101769.00
2018-09-11T16:02:35.394Z,101772.00
2018-09-11T16:05:05.442Z,101778.00
2018-09-11T16:07:35.496Z,101786.00
2018-09-11T16:10:06.214Z,101785.00
2018-09-11T16:12:35.530Z,101790.00
2018-09-11T16:15:05.919Z,101785.00
2018-09-11T16:17:35.517Z,101787.00
2018-09-11T16:20:05.912Z,101787.00
2018-09-11T16:22:35.569Z,101791.00
2018-09-11T16:25:05.643Z,101793.00
2018-09-11T16:27:35.533Z,101789.00
2018-09-11T16:30:05.890Z,101805.00
2018-09-11T16:32:35.614Z,101799.00
2018-09-11T16:35:05.582Z,101806.00
2018-09-11T16:37:35.700Z,101814.00
2018-09-11T16:40:05.767Z,101803.00
2018-09-11T16:42:35.579Z,101806.00
2018-09-11T16:45:05.738Z,101810.00
2018-09-11T16:47:35.665Z,101800.00
2018-09-11T16:50:05.990Z,101795.00
2018-09-11T16:52:37.826Z,101805.00
2018-09-11T16:55:07.247Z,101804.00
2018-09-11T16:57:36.578Z,101798.00
2018-09-11T17:00:05.966Z,101798.00
2018-09-11T17:02:35.868Z,101791.00
2018-09-11T17:05:05.819Z,101805.00
2018-09-11T17:07:35.748Z,101804.00
2018-09-11T17:10:05.905Z,101803.00
2018-09-11T17:12:35.753Z,101798.00
2018-09-11T17:15:05.716Z,101799.00
2018-09-11T17:17:35.694Z,101803.00
2018-09-11T17:20:05.834Z,101808.00
2018-09-11T17:22:35.827Z,101810.00
2018-09-11T17:25:05.736Z,101811.00
2018-09-11T17:27:35.680Z,101814.00
2018-09-11T17:30:05.892Z,101811.00
2018-09-11T17:32:35.854Z,101813.00
2018-09-11T17:35:05.883Z,101810.00
2018-09-11T17:37:35.791Z,101812.00
2018-09-11T17:40:05.995Z,101813.00
2018-09-11T17:42:37.457Z,101801.00
2018-09-11T17:45:06.942Z,101797.00
2018-09-11T17:47:36.263Z,101800.00
2018-09-11T17:50:06.137Z,101800.00
2018-09-11T17:52:35.926Z,101808.00
2018-09-11T17:55:05.883Z,101809.00
2018-09-11T17:57:35.862Z,101811.00
2018-09-11T18:00:05.895Z,101818.00
2018-09-11T18:02:35.943Z,101817.00
2018-09-11T18:05:06.425Z,101819.00
2018-09-11T18:07:38.715Z,101816.00
2018-09-11T18:10:08.059Z,101816.00
2018-09-11T18:12:37.482Z,101814.00
2018-09-11T18:15:06.908Z,101820.00
2018-09-11T18:17:36.227Z,101816.00
2018-09-11T18:20:06.038Z,101810.00
2018-09-11T18:22:35.975Z,101808.00
2018-09-11T18:25:06.046Z,101808.00
2018-09-11T18:27:36.018Z,101804.00
2018-09-11T18:30:06.245Z,101801.00
2018-09-11T18:32:40.461Z,101797.00
2018-09-11T18:35:09.801Z,101800.00
2018-09-11T18:37:39.162Z,101799.00
2018-09-11T18:40:08.647Z,101801.00
2018-09-11T18:42:37.979Z,101803.00
2018-09-11T18:45:07.311Z,101806.00
2018-09-11T18:47:36.632Z,101805.00
2018-09-11T18:50:06.167Z,101803.00
2018-09-11T18:52:36.042Z,101802.00
2018-09-11T18:55:06.340Z,101806.00
2018-09-11T18:57:36.198Z,101813.00
2018-09-11T19:00:06.356Z,101811.00
2018-09-11T19:02:36.084Z,101814.00
2018-09-11T19:05:06.151Z,101816.00
2018-09-11T19:07:36.119Z,101827.00
2018-09-11T19:10:06.175Z,101823.00
2018-09-11T19:12:36.144Z,101822.00
2018-09-11T19:15:06.380Z,101820.00
2018-09-11T19:17:36.266Z,101822.00
2018-09-11T19:20:07.225Z,101828.00
2018-09-11T19:22:36.608Z,101826.00
2018-09-11T19:25:06.495Z,101826.00
2018-09-11T19:27:36.193Z,101823.00
2018-09-11T19:30:08.815Z,101818.00
2018-09-11T19:32:38.202Z,101816.00
2018-09-11T19:35:07.565Z,101820.00
2018-09-11T19:37:37.183Z,101830.00
2018-09-11T19:40:06.670Z,101828.00
2018-09-11T19:42:42.544Z,101825.00
2018-09-11T19:45:11.860Z,101833.00
2018-09-11T19:47:41.195Z,101827.00
2018-09-11T19:50:10.562Z,101828.00
2018-09-11T19:52:39.874Z,101819.00
2018-09-11T19:55:11.509Z,101826.00
2018-09-11T19:57:40.893Z,101818.00
2018-09-11T20:00:11.702Z,101826.00
2018-09-11T20:02:41.284Z,101828.00
2018-09-11T20:05:10.630Z,101827.00
2018-09-11T20:07:39.992Z,101823.00
2018-09-11T20:10:09.435Z,101824.00
2018-09-11T20:12:38.896Z,101836.00
2018-09-11T20:15:08.565Z,101832.00
2018-09-11T20:17:37.898Z,101828.00
2018-09-11T20:20:07.285Z,101831.00
2018-09-11T20:22:36.591Z,101827.00
2018-09-11T20:25:06.515Z,101830.00
2018-09-11T20:27:36.371Z,101829.00
2018-09-11T20:30:06.465Z,101828.00
2018-09-11T20:32:36.378Z,101829.00
2018-09-11T20:35:06.487Z,101831.00
2018-09-11T20:37:36.448Z,101829.00
2018-09-11T20:40:06.646Z,101828.00
2018-09-11T20:42:36.466Z,101828.00
2018-09-11T20:45:06.517Z,101827.00
2018-09-11T20:47:38.981Z,101836.00
2018-09-11T20:50:19.554Z,101830.00
2018-09-11T20:52:56.238Z,101829.00
2018-09-11T20:55:32.547Z,101818.00
2018-09-11T20:58:01.942Z,101824.00
2018-09-11T21:00:31.309Z,101810.00
2018-09-11T21:03:00.587Z,101815.00
2018-09-11T21:05:29.912Z,101814.00
2018-09-11T21:07:59.319Z,101808.00
2018-09-11T21:10:28.651Z,101814.00
2018-09-11T21:12:58.597Z,101811.00
2018-09-11T21:15:29.155Z,101809.00
2018-09-11T21:17:58.780Z,101804.00
2018-09-11T21:20:28.664Z,101803.00
2018-09-11T21:22:58.989Z,101805.00
2018-09-11T21:25:30.756Z,101806.00
2018-09-11T21:28:00.661Z,101807.00
2018-09-11T21:30:36.027Z,101801.00
2018-09-11T21:33:06.588Z,101798.00
2018-09-11T21:35:36.748Z,101791.00
2018-09-11T21:38:06.647Z,101805.00
2018-09-11T21:40:36.681Z,101805.00
2018-09-11T21:43:06.777Z,101794.00
2018-09-11T21:45:36.745Z,101795.00
2018-09-11T21:48:06.329Z,101793.00
2018-09-11T21:50:36.685Z,101801.00
2018-09-11T21:53:06.660Z,101792.00
2018-09-11T21:55:36.682Z,101800.00
2018-09-11T21:58:06.780Z,101797.00
2018-09-11T22:00:40.920Z,101798.00
2018-09-11T22:03:10.250Z,101794.00
2018-09-11T22:05:39.673Z,101798.00
2018-09-11T22:08:08.931Z,101803.00
2018-09-11T22:10:38.230Z,101799.00
2018-09-11T22:13:07.796Z,101802.00
2018-09-11T22:15:37.142Z,101798.00
2018-09-11T22:18:06.735Z,101806.00
2018-09-11T22:20:36.957Z,101805.00
2018-09-11T22:23:07.121Z,101807.00
2018-09-11T22:25:36.761Z,101805.00
2018-09-11T22:28:06.760Z,101813.00
2018-09-11T22:30:36.816Z,101821.00
2018-09-11T22:33:06.807Z,101822.00
2018-09-11T22:35:36.823Z,101822.00
2018-09-11T22:38:06.904Z,101829.00
2018-09-11T22:40:36.817Z,101831.00
2018-09-11T22:43:07.513Z,101823.00
2018-09-11T22:45:36.883Z,101824.00
2018-09-11T22:48:06.866Z,101822.00
2018-09-11T22:50:36.948Z,101826.00
2018-09-11T22:53:07.006Z,101831.00
2018-09-11T22:55:36.956Z,101832.00
2018-09-11T22:58:06.890Z,101840.00
2018-09-11T23:00:36.886Z,101840.00
2018-09-11T23:03:06.991Z,101837.00
2018-09-11T23:05:37.017Z,101833.00
2018-09-11T23:08:06.919Z,101840.00
2018-09-11T23:10:36.914Z,101843.00
2018-09-11T23:13:07.028Z,101835.00
2018-09-11T23:15:36.976Z,101834.00
2018-09-11T23:18:06.993Z,101830.00
2018-09-11T23:20:37.118Z,101829.00
2018-09-11T23:23:06.970Z,101837.00
2018-09-11T23:25:36.980Z,101837.00
2018-09-11T23:28:07.009Z,101829.00
2018-09-11T23:30:36.972Z,101832.00
2018-09-11T23:33:07.115Z,101826.00
2018-09-11T23:35:37.084Z,101831.00
2018-09-11T23:38:07.087Z,101828.00
2018-09-11T23:40:37.137Z,101831.00
2018-09-11T23:43:07.136Z,101840.00
2018-09-11T23:45:37.030Z,101835.00
2018-09-11T23:48:07.043Z,101831.00
2018-09-11T23:50:37.016Z,101833.00
2018-09-11T23:53:07.163Z,101824.00
2018-09-11T23:55:37.176Z,101827.00
2018-09-11T23:58:07.071Z,101826.00
